sensor_id;sensor_type;location;lat;lon;timestamp;pressure;altitude;pressure_sealevel;temperature;humidity
17649;BME280;8943;51.110;-4.158;2023-02-03T00:01:55;102791.00;;;14.43;61.04
17649;BME280;8943;51.110;-4.158;2023-02-03T00:04:23;102777.44;;;14.47;61.08
17649;BME280;8943;51.110;-4.158;2023-02-03T00:06:51;102778.28;;;14.47;61.14
17649;BME280;8943;51.110;-4.158;2023-02-03T00:09:19;102770.19;;;14.49;60.80
17649;BME280;8943;51.110;-4.158;2023-02-03T00:11:47;102777.19;;;14.51;60.86
17649;BME280;8943;51.110;-4.158;2023-02-03T00:14:15;102786.22;;;14.50;60.91
17649;BME280;8943;51.110;-4.158;2023-02-03T00:16:44;102783.66;;;14.47;60.88
17649;BME280;8943;51.110;-4.158;2023-02-03T00:19:13;102796.94;;;14.50;61.04
17649;BME280;8943;51.110;-4.158;2023-02-03T00:21:43;102795.19;;;14.49;60.67
17649;BME280;8943;51.110;-4.158;2023-02-03T00:24:11;102778.28;;;14.47;60.95
17649;BME280;8943;51.110;-4.158;2023-02-03T00:26:42;102772.00;;;14.48;60.99
17649;BME280;8943;51.110;-4.158;2023-02-03T00:29:10;102769.31;;;14.48;60.88
17649;BME280;8943;51.110;-4.158;2023-02-03T00:31:39;102753.38;;;14.45;60.88
17649;BME280;8943;51.110;-4.158;2023-02-03T00:34:08;102740.75;;;14.47;61.05
17649;BME280;8943;51.110;-4.158;2023-02-03T00:36:37;102744.53;;;14.43;60.96
17649;BME280;8943;51.110;-4.158;2023-02-03T00:39:08;102742.13;;;14.38;61.12
17649;BME280;8943;51.110;-4.158;2023-02-03T00:41:36;102735.91;;;14.38;61.17
17649;BME280;8943;51.110;-4.158;2023-02-03T00:44:04;102732.09;;;14.42;60.83
17649;BME280;8943;51.110;-4.158;2023-02-03T00:46:32;102718.94;;;14.37;60.77
17649;BME280;8943;51.110;-4.158;2023-02-03T00:49:02;102719.09;;;14.34;60.64
17649;BME280;8943;51.110;-4.158;2023-02-03T00:51:30;102724.47;;;14.34;60.86
17649;BME280;8943;51.110;-4.158;2023-02-03T00:53:59;102708.31;;;14.36;61.01
17649;BME280;8943;51.110;-4.158;2023-02-03T00:56:27;102716.34;;;14.36;61.01
17649;BME280;8943;51.110;-4.158;2023-02-03T00:58:55;102700.16;;;14.37;61.30
17649;BME280;8943;51.110;-4.158;2023-02-03T01:01:23;102713.47;;;14.39;60.80
17649;BME280;8943;51.110;-4.158;2023-02-03T01:03:53;102702.75;;;14.39;60.79
17649;BME280;8943;51.110;-4.158;2023-02-03T01:06:22;102695.78;;;14.36;60.79
17649;BME280;8943;51.110;-4.158;2023-02-03T01:08:50;102693.34;;;14.32;60.46
17649;BME280;8943;51.110;-4.158;2023-02-03T01:11:22;102705.09;;;14.29;60.28
17649;BME280;8943;51.110;-4.158;2023-02-03T01:13:51;102695.34;;;14.28;60.44
17649;BME280;8943;51.110;-4.158;2023-02-03T01:16:21;102700.00;;;14.25;60.64
17649;BME280;8943;51.110;-4.158;2023-02-03T01:18:53;102702.63;;;14.26;60.75
17649;BME280;8943;51.110;-4.158;2023-02-03T01:21:22;102681.81;;;14.30;60.68
17649;BME280;8943;51.110;-4.158;2023-02-03T01:23:52;102690.06;;;14.27;60.55
17649;BME280;8943;51.110;-4.158;2023-02-03T01:26:22;102682.63;;;14.32;60.46
17649;BME280;8943;51.110;-4.158;2023-02-03T01:28:51;102679.16;;;14.30;60.21
17649;BME280;8943;51.110;-4.158;2023-02-03T01:31:21;102677.25;;;14.32;60.27
17649;BME280;8943;51.110;-4.158;2023-02-03T01:33:51;102671.91;;;14.32;60.08
17649;BME280;8943;51.110;-4.158;2023-02-03T01:36:21;102673.03;;;14.28;60.06
17649;BME280;8943;51.110;-4.158;2023-02-03T01:38:49;102682.88;;;14.27;60.26
17649;BME280;8943;51.110;-4.158;2023-02-03T01:41:20;102683.84;;;14.26;60.17
17649;BME280;8943;51.110;-4.158;2023-02-03T01:43:52;102685.66;;;14.26;60.08
17649;BME280;8943;51.110;-4.158;2023-02-03T01:46:29;102695.34;;;14.28;59.96
17649;BME280;8943;51.110;-4.158;2023-02-03T01:49:03;102690.66;;;14.32;59.98
17649;BME280;8943;51.110;-4.158;2023-02-03T01:51:35;102694.97;;;14.34;59.83
17649;BME280;8943;51.110;-4.158;2023-02-03T01:54:06;102687.81;;;14.35;59.68
17649;BME280;8943;51.110;-4.158;2023-02-03T01:56:38;102698.34;;;14.38;59.82
17649;BME280;8943;51.110;-4.158;2023-02-03T01:59:10;102688.22;;;14.43;59.59
17649;BME280;8943;51.110;-4.158;2023-02-03T02:01:39;102690.91;;;14.43;59.70
17649;BME280;8943;51.110;-4.158;2023-02-03T02:04:07;102680.00;;;14.46;59.50
17649;BME280;8943;51.110;-4.158;2023-02-03T02:06:35;102688.84;;;14.48;59.63
17649;BME280;8943;51.110;-4.158;2023-02-03T02:09:04;102696.97;;;14.47;59.31
17649;BME280;8943;51.110;-4.158;2023-02-03T02:11:32;102695.94;;;14.49;59.18
17649;BME280;8943;51.110;-4.158;2023-02-03T02:14:02;102692.31;;;14.50;59.08
17649;BME280;8943;51.110;-4.158;2023-02-03T02:16:40;102692.13;;;14.53;59.06
17649;BME280;8943;51.110;-4.158;2023-02-03T02:19:29;102718.09;;;14.53;59.32
17649;BME280;8943;51.110;-4.158;2023-02-03T02:22:08;102702.84;;;14.53;59.45
17649;BME280;8943;51.110;-4.158;2023-02-03T02:25:05;102713.56;;;14.53;59.31
17649;BME280;8943;51.110;-4.158;2023-02-03T02:28:07;102718.78;;;14.56;59.42
17649;BME280;8943;51.110;-4.158;2023-02-03T02:33:53;102714.53;;;14.52;59.19
17649;BME280;8943;51.110;-4.158;2023-02-03T02:36:29;102726.22;;;14.51;59.49
17649;BME280;8943;51.110;-4.158;2023-02-03T02:39:04;102725.38;;;14.51;59.64
17649;BME280;8943;51.110;-4.158;2023-02-03T02:41:39;102728.91;;;14.51;59.62
17649;BME280;8943;51.110;-4.158;2023-02-03T02:44:16;102723.53;;;14.51;59.76
17649;BME280;8943;51.110;-4.158;2023-02-03T02:46:48;102726.94;;;14.55;59.58
17649;BME280;8943;51.110;-4.158;2023-02-03T02:49:21;102726.13;;;14.53;59.68
17649;BME280;8943;51.110;-4.158;2023-02-03T02:51:52;102749.06;;;14.58;59.40
17649;BME280;8943;51.110;-4.158;2023-02-03T02:54:23;102746.38;;;14.58;59.80
17649;BME280;8943;51.110;-4.158;2023-02-03T02:56:54;102733.06;;;14.57;59.79
17649;BME280;8943;51.110;-4.158;2023-02-03T02:59:23;102745.59;;;14.56;59.72
17649;BME280;8943;51.110;-4.158;2023-02-03T03:01:51;102749.06;;;14.58;59.68
17649;BME280;8943;51.110;-4.158;2023-02-03T03:04:23;102749.06;;;14.58;59.91
17649;BME280;8943;51.110;-4.158;2023-02-03T03:06:54;102741.78;;;14.60;59.80
17649;BME280;8943;51.110;-4.158;2023-02-03T03:09:26;102741.78;;;14.60;59.78
17649;BME280;8943;51.110;-4.158;2023-02-03T03:12:07;102740.84;;;14.61;59.83
17649;BME280;8943;51.110;-4.158;2023-02-03T03:14:40;102732.78;;;14.61;60.07
17649;BME280;8943;51.110;-4.158;2023-02-03T03:17:13;102740.66;;;14.64;59.72
17649;BME280;8943;51.110;-4.158;2023-02-03T03:19:50;102740.06;;;14.59;59.76
17649;BME280;8943;51.110;-4.158;2023-02-03T03:22:21;102740.75;;;14.63;59.62
17649;BME280;8943;51.110;-4.158;2023-02-03T03:24:54;102744.22;;;14.65;59.30
17649;BME280;8943;51.110;-4.158;2023-02-03T03:27:30;102755.00;;;14.63;59.61
17649;BME280;8943;51.110;-4.158;2023-02-03T03:30:05;102748.28;;;14.56;59.54
17649;BME280;8943;51.110;-4.158;2023-02-03T03:32:37;102746.56;;;14.55;59.49
17649;BME280;8943;51.110;-4.158;2023-02-03T03:35:07;102754.78;;;14.52;59.62
17649;BME280;8943;51.110;-4.158;2023-02-03T03:37:38;102754.94;;;14.49;59.90
17649;BME280;8943;51.110;-4.158;2023-02-03T03:40:10;102755.09;;;14.46;59.94
17649;BME280;8943;51.110;-4.158;2023-02-03T03:42:42;102750.88;;;14.42;60.02
17649;BME280;8943;51.110;-4.158;2023-02-03T03:45:15;102764.38;;;14.40;60.46
17649;BME280;8943;51.110;-4.158;2023-02-03T03:47:50;102752.78;;;14.40;60.19
17649;BME280;8943;51.110;-4.158;2023-02-03T03:50:24;102761.75;;;14.39;60.25
17649;BME280;8943;51.110;-4.158;2023-02-03T03:52:55;102748.34;;;14.39;60.22
17649;BME280;8943;51.110;-4.158;2023-02-03T03:55:27;102752.78;;;14.40;60.37
17649;BME280;8943;51.110;-4.158;2023-02-03T03:57:59;102744.75;;;14.40;60.60
17649;BME280;8943;51.110;-4.158;2023-02-03T04:00:31;102751.03;;;14.39;60.42
17649;BME280;8943;51.110;-4.158;2023-02-03T04:03:06;102747.31;;;14.41;60.39
17649;BME280;8943;51.110;-4.158;2023-02-03T04:05:39;102750.78;;;14.43;60.42
17649;BME280;8943;51.110;-4.158;2023-02-03T04:08:08;102751.41;;;14.49;60.31
17649;BME280;8943;51.110;-4.158;2023-02-03T04:10:37;102748.78;;;14.47;60.59
17649;BME280;8943;51.110;-4.158;2023-02-03T04:13:06;102760.41;;;14.48;60.43
17649;BME280;8943;51.110;-4.158;2023-02-03T04:15:35;102757.78;;;14.46;60.57
17649;BME280;8943;51.110;-4.158;2023-02-03T04:18:03;102764.19;;;14.43;60.69
17649;BME280;8943;51.110;-4.158;2023-02-03T04:20:32;102757.97;;;14.43;60.72
17649;BME280;8943;51.110;-4.158;2023-02-03T04:23:01;102756.13;;;14.43;60.73
17649;BME280;8943;51.110;-4.158;2023-02-03T04:25:29;102755.28;;;14.43;60.88
17649;BME280;8943;51.110;-4.158;2023-02-03T04:27:58;102751.81;;;14.41;60.89
17649;BME280;8943;51.110;-4.158;2023-02-03T04:30:26;102762.72;;;14.38;60.84
17649;BME280;8943;51.110;-4.158;2023-02-03T04:32:55;102759.28;;;14.36;60.79
17649;BME280;8943;51.110;-4.158;2023-02-03T04:35:23;102769.03;;;14.37;61.13
17649;BME280;8943;51.110;-4.158;2023-02-03T04:37:51;102760.13;;;14.36;60.91
17649;BME280;8943;51.110;-4.158;2023-02-03T04:40:22;102774.41;;;14.37;60.97
17649;BME280;8943;51.110;-4.158;2023-02-03T04:42:50;102772.44;;;14.40;60.79
17649;BME280;8943;51.110;-4.158;2023-02-03T04:45:18;102774.06;;;14.43;60.70
17649;BME280;8943;51.110;-4.158;2023-02-03T04:47:50;102775.97;;;14.41;60.88
17649;BME280;8943;51.110;-4.158;2023-02-03T04:50:20;102771.47;;;14.41;60.84
17649;BME280;8943;51.110;-4.158;2023-02-03T04:52:48;102772.31;;;14.42;60.88
17649;BME280;8943;51.110;-4.158;2023-02-03T04:55:16;102758.31;;;14.37;60.88
17649;BME280;8943;51.110;-4.158;2023-02-03T04:57:46;102756.59;;;14.36;61.45
17649;BME280;8943;51.110;-4.158;2023-02-03T05:00:14;102766.53;;;14.34;61.16
17649;BME280;8943;51.110;-4.158;2023-02-03T05:02:42;102766.63;;;14.32;61.18
17649;BME280;8943;51.110;-4.158;2023-02-03T05:05:10;102764.03;;;14.31;61.15
17649;BME280;8943;51.110;-4.158;2023-02-03T05:07:38;102770.16;;;14.33;61.27
17649;BME280;8943;51.110;-4.158;2023-02-03T05:10:07;102776.31;;;14.35;60.99
17649;BME280;8943;51.110;-4.158;2023-02-03T05:12:35;102776.47;;;14.32;61.39
17649;BME280;8943;51.110;-4.158;2023-02-03T05:15:06;102802.50;;;14.30;61.61
17649;BME280;8943;51.110;-4.158;2023-02-03T05:17:34;102804.06;;;14.34;61.55
17649;BME280;8943;51.110;-4.158;2023-02-03T05:20:06;102792.47;;;14.33;61.57
17649;BME280;8943;51.110;-4.158;2023-02-03T05:22:35;102814.78;;;14.34;61.53
17649;BME280;8943;51.110;-4.158;2023-02-03T05:25:04;102790.84;;;14.31;61.66
17649;BME280;8943;51.110;-4.158;2023-02-03T05:27:32;102773.00;;;14.30;61.35
17649;BME280;8943;51.110;-4.158;2023-02-03T05:30:01;102775.69;;;14.30;61.32
17649;BME280;8943;51.110;-4.158;2023-02-03T05:32:30;102776.22;;;14.21;61.19
17649;BME280;8943;51.110;-4.158;2023-02-03T05:34:58;102778.13;;;14.18;61.35
17649;BME280;8943;51.110;-4.158;2023-02-03T05:37:26;102772.16;;;14.13;61.26
17649;BME280;8943;51.110;-4.158;2023-02-03T05:39:54;102774.06;;;14.11;61.12
17649;BME280;8943;51.110;-4.158;2023-02-03T05:42:46;102783.06;;;14.10;61.46
17649;BME280;8943;51.110;-4.158;2023-02-03T05:45:14;102779.50;;;14.10;61.46
17649;BME280;8943;51.110;-4.158;2023-02-03T05:47:43;102787.53;;;14.10;61.91
17649;BME280;8943;51.110;-4.158;2023-02-03T05:50:11;102799.75;;;14.15;61.90
17649;BME280;8943;51.110;-4.158;2023-02-03T05:52:42;102779.84;;;14.20;61.77
17649;BME280;8943;51.110;-4.158;2023-02-03T05:55:10;102782.47;;;14.21;61.54
17649;BME280;8943;51.110;-4.158;2023-02-03T05:57:38;102774.47;;;14.20;61.80
17649;BME280;8943;51.110;-4.158;2023-02-03T06:00:07;102776.22;;;14.21;61.59
17649;BME280;8943;51.110;-4.158;2023-02-03T06:02:36;102791.47;;;14.20;61.55
17649;BME280;8943;51.110;-4.158;2023-02-03T06:05:06;102781.66;;;14.19;61.69
17649;BME280;8943;51.110;-4.158;2023-02-03T06:07:35;102789.69;;;14.19;61.51
17649;BME280;8943;51.110;-4.158;2023-02-03T06:10:03;102785.41;;;14.16;61.35
17649;BME280;8943;51.110;-4.158;2023-02-03T06:12:31;102793.25;;;14.20;61.66
17649;BME280;8943;51.110;-4.158;2023-02-03T06:14:59;102792.31;;;14.21;61.82
17649;BME280;8943;51.110;-4.158;2023-02-03T06:17:27;102816.44;;;14.21;61.75
17649;BME280;8943;51.110;-4.158;2023-02-03T06:19:56;102789.09;;;14.14;62.00
17649;BME280;8943;51.110;-4.158;2023-02-03T06:22:25;102795.25;;;14.16;62.26
17649;BME280;8943;51.110;-4.158;2023-02-03T06:24:53;102795.25;;;14.16;62.18
17649;BME280;8943;51.110;-4.158;2023-02-03T06:27:21;102799.75;;;14.15;62.36
17649;BME280;8943;51.110;-4.158;2023-02-03T06:29:49;102787.28;;;14.14;62.58
17649;BME280;8943;51.110;-4.158;2023-02-03T06:32:17;102804.06;;;14.18;62.31
17649;BME280;8943;51.110;-4.158;2023-02-03T06:34:45;102788.84;;;14.18;62.68
17649;BME280;8943;51.110;-4.158;2023-02-03T06:37:14;102788.84;;;14.18;62.51
17649;BME280;8943;51.110;-4.158;2023-02-03T06:39:43;102793.34;;;14.18;62.51
17649;BME280;8943;51.110;-4.158;2023-02-03T06:42:11;102793.50;;;14.15;62.49
17649;BME280;8943;51.110;-4.158;2023-02-03T06:44:39;102798.59;;;14.20;62.57
17649;BME280;8943;51.110;-4.158;2023-02-03T06:47:07;102801.28;;;14.20;62.43
17649;BME280;8943;51.110;-4.158;2023-02-03T06:49:35;102810.47;;;14.15;62.51
17649;BME280;8943;51.110;-4.158;2023-02-03T06:52:03;102810.53;;;14.14;62.67
17649;BME280;8943;51.110;-4.158;2023-02-03T06:54:31;102823.69;;;14.18;62.50
17649;BME280;8943;51.110;-4.158;2023-02-03T06:57:01;102836.34;;;14.16;62.63
17649;BME280;8943;51.110;-4.158;2023-02-03T06:59:29;102835.53;;;14.14;62.68
17649;BME280;8943;51.110;-4.158;2023-02-03T07:01:57;102837.91;;;14.21;62.76
17649;BME280;8943;51.110;-4.158;2023-02-03T07:04:25;102838.81;;;14.20;62.49
17649;BME280;8943;51.110;-4.158;2023-02-03T07:06:55;102847.47;;;14.25;62.38
17649;BME280;8943;51.110;-4.158;2023-02-03T07:09:25;102838.50;;;14.26;62.23
17649;BME280;8943;51.110;-4.158;2023-02-03T07:11:53;102842.13;;;14.25;62.44
17649;BME280;8943;51.110;-4.158;2023-02-03T07:14:22;102851.91;;;14.26;62.25
17649;BME280;8943;51.110;-4.158;2023-02-03T07:16:50;102851.91;;;14.26;62.24
17649;BME280;8943;51.110;-4.158;2023-02-03T07:19:19;102842.06;;;14.26;62.24
17649;BME280;8943;51.110;-4.158;2023-02-03T07:21:50;102856.13;;;14.30;62.30
17649;BME280;8943;51.110;-4.158;2023-02-03T07:24:19;102845.50;;;14.28;62.21
17649;BME280;8943;51.110;-4.158;2023-02-03T07:26:47;102863.25;;;14.31;62.37
17649;BME280;8943;51.110;-4.158;2023-02-03T07:29:15;102861.34;;;14.33;62.03
17649;BME280;8943;51.110;-4.158;2023-02-03T07:31:45;102857.72;;;14.34;62.03
17649;BME280;8943;51.110;-4.158;2023-02-03T07:34:13;102864.84;;;14.35;61.91
17649;BME280;8943;51.110;-4.158;2023-02-03T07:36:41;102877.44;;;14.33;61.99
17649;BME280;8943;51.110;-4.158;2023-02-03T07:39:10;102870.44;;;14.30;61.99
17649;BME280;8943;51.110;-4.158;2023-02-03T07:41:38;102877.53;;;14.31;61.94
17649;BME280;8943;51.110;-4.158;2023-02-03T07:44:06;102874.91;;;14.30;61.93
17649;BME280;8943;51.110;-4.158;2023-02-03T07:46:35;102878.50;;;14.30;61.87
17649;BME280;8943;51.110;-4.158;2023-02-03T07:49:07;102877.44;;;14.33;61.66
17649;BME280;8943;51.110;-4.158;2023-02-03T07:51:35;102879.16;;;14.34;61.98
17649;BME280;8943;51.110;-4.158;2023-02-03T07:54:04;102889.03;;;14.33;62.00
17649;BME280;8943;51.110;-4.158;2023-02-03T07:56:32;102892.75;;;14.31;61.79
17649;BME280;8943;51.110;-4.158;2023-02-03T07:59:00;102891.91;;;14.30;62.01
17649;BME280;8943;51.110;-4.158;2023-02-03T08:01:28;102890.84;;;14.33;62.11
17649;BME280;8943;51.110;-4.158;2023-02-03T08:03:57;102897.16;;;14.32;61.88
17649;BME280;8943;51.110;-4.158;2023-02-03T08:06:29;102913.25;;;14.32;62.00
17649;BME280;8943;51.110;-4.158;2023-02-03T08:08:57;102908.50;;;14.37;61.79
17649;BME280;8943;51.110;-4.158;2023-02-03T08:11:25;102903.84;;;14.40;62.05
17649;BME280;8943;51.110;-4.158;2023-02-03T08:13:53;102901.84;;;14.44;62.04
17649;BME280;8943;51.110;-4.158;2023-02-03T08:16:21;102916.06;;;14.46;61.84
17649;BME280;8943;51.110;-4.158;2023-02-03T08:18:49;102911.56;;;14.47;62.13
17649;BME280;8943;51.110;-4.158;2023-02-03T08:21:17;102918.69;;;14.48;61.83
17649;BME280;8943;51.110;-4.158;2023-02-03T08:23:47;102915.03;;;14.49;61.82
17649;BME280;8943;51.110;-4.158;2023-02-03T08:26:15;102925.72;;;14.50;62.02
17649;BME280;8943;51.110;-4.158;2023-02-03T08:28:47;102922.84;;;14.53;62.03
17649;BME280;8943;51.110;-4.158;2023-02-03T08:31:15;102925.63;;;14.52;62.09
17649;BME280;8943;51.110;-4.158;2023-02-03T08:33:44;102922.69;;;14.56;62.03
17649;BME280;8943;51.110;-4.158;2023-02-03T08:36:12;102930.56;;;14.59;62.02
17649;BME280;8943;51.110;-4.158;2023-02-03T08:38:41;102928.56;;;14.63;62.07
17649;BME280;8943;51.110;-4.158;2023-02-03T08:41:12;102928.50;;;14.64;61.97
17649;BME280;8943;51.110;-4.158;2023-02-03T08:43:40;102928.16;;;14.71;61.86
17649;BME280;8943;51.110;-4.158;2023-02-03T08:46:10;102928.91;;;14.73;62.07
17649;BME280;8943;51.110;-4.158;2023-02-03T08:48:38;102933.16;;;14.77;61.74
17649;BME280;8943;51.110;-4.158;2023-02-03T08:51:10;102935.69;;;14.80;61.81
17649;BME280;8943;51.110;-4.158;2023-02-03T08:53:38;102939.25;;;14.80;61.75
17649;BME280;8943;51.110;-4.158;2023-02-03T08:56:08;102948.16;;;14.81;61.76
17649;BME280;8943;51.110;-4.158;2023-02-03T08:58:38;102942.94;;;14.78;61.91
17649;BME280;8943;51.110;-4.158;2023-02-03T09:01:08;102932.91;;;14.81;61.83
17649;BME280;8943;51.110;-4.158;2023-02-03T09:03:38;102941.81;;;14.82;61.87
17649;BME280;8943;51.110;-4.158;2023-02-03T09:06:07;102944.34;;;14.85;61.98
17649;BME280;8943;51.110;-4.158;2023-02-03T09:08:37;102945.97;;;14.87;61.74
17649;BME280;8943;51.110;-4.158;2023-02-03T09:11:07;102956.66;;;14.89;61.86
17649;BME280;8943;51.110;-4.158;2023-02-03T09:13:36;102949.47;;;14.89;61.59
17649;BME280;8943;51.110;-4.158;2023-02-03T09:16:06;102950.59;;;14.85;61.86
17649;BME280;8943;51.110;-4.158;2023-02-03T09:18:35;102952.16;;;14.89;61.78
17649;BME280;8943;51.110;-4.158;2023-02-03T09:21:05;102959.94;;;14.94;61.83
17649;BME280;8943;51.110;-4.158;2023-02-03T09:23:33;102953.72;;;14.93;61.90
17649;BME280;8943;51.110;-4.158;2023-02-03T09:26:01;102960.81;;;14.94;61.70
17649;BME280;8943;51.110;-4.158;2023-02-03T09:28:33;102968.66;;;14.98;61.54
17649;BME280;8943;51.110;-4.158;2023-02-03T09:31:03;102968.75;;;14.96;61.77
17649;BME280;8943;51.110;-4.158;2023-02-03T09:33:33;102970.69;;;14.94;61.95
17649;BME280;8943;51.110;-4.158;2023-02-03T09:36:02;102976.81;;;14.96;61.83
17649;BME280;8943;51.110;-4.158;2023-02-03T09:38:32;102982.09;;;14.98;61.88
17649;BME280;8943;51.110;-4.158;2023-02-03T09:41:02;102974.28;;;14.93;61.72
17649;BME280;8943;51.110;-4.158;2023-02-03T09:43:40;102982.91;;;15.00;61.88
17649;BME280;8943;51.110;-4.158;2023-02-03T09:46:15;102988.78;;;15.06;61.60
17649;BME280;8943;51.110;-4.158;2023-02-03T09:48:47;102993.38;;;15.04;61.14
17649;BME280;8943;51.110;-4.158;2023-02-03T09:51:21;102988.31;;;14.98;61.04
17649;BME280;8943;51.110;-4.158;2023-02-03T09:53:56;102993.69;;;14.98;61.90
17649;BME280;8943;51.110;-4.158;2023-02-03T09:56:28;103000.03;;;14.97;61.38
17649;BME280;8943;51.110;-4.158;2023-02-03T09:58:58;102995.97;;;15.06;61.56
17649;BME280;8943;51.110;-4.158;2023-02-03T10:01:30;103008.44;;;15.07;61.62
17649;BME280;8943;51.110;-4.158;2023-02-03T10:04:06;102993.63;;;15.15;61.67
17649;BME280;8943;51.110;-4.158;2023-02-03T10:06:42;103006.38;;;15.28;61.60
17649;BME280;8943;51.110;-4.158;2023-02-03T10:09:25;103007.91;;;15.32;61.98
17649;BME280;8943;51.110;-4.158;2023-02-03T10:12:30;103021.94;;;15.37;61.43
17649;BME280;8943;51.110;-4.158;2023-02-03T10:15:18;103017.16;;;15.42;61.21
17649;BME280;8943;51.110;-4.158;2023-02-03T10:17:54;103007.22;;;15.44;61.23
17649;BME280;8943;51.110;-4.158;2023-02-03T10:20:32;103011.53;;;15.46;60.88
17649;BME280;8943;51.110;-4.158;2023-02-03T10:23:05;103020.19;;;15.52;60.99
17649;BME280;8943;51.110;-4.158;2023-02-03T10:25:39;103023.19;;;15.47;61.14
17649;BME280;8943;51.110;-4.158;2023-02-03T10:28:13;103017.81;;;15.47;60.86
17649;BME280;8943;51.110;-4.158;2023-02-03T10:30:45;103030.28;;;15.48;60.97
17649;BME280;8943;51.110;-4.158;2023-02-03T10:33:17;103026.63;;;15.49;60.96
17649;BME280;8943;51.110;-4.158;2023-02-03T10:35:50;103030.19;;;15.50;61.08
17649;BME280;8943;51.110;-4.158;2023-02-03T10:38:28;103039.69;;;15.55;60.63
17649;BME280;8943;51.110;-4.158;2023-02-03T10:40:59;103047.75;;;15.55;60.52
17649;BME280;8943;51.110;-4.158;2023-02-03T10:43:28;103030.63;;;15.58;60.72
17649;BME280;8943;51.110;-4.158;2023-02-03T10:46:19;103044.66;;;15.63;60.84
17649;BME280;8943;51.110;-4.158;2023-02-03T10:48:48;103049.88;;;15.66;60.64
17649;BME280;8943;51.110;-4.158;2023-02-03T10:51:23;103045.38;;;15.66;60.47
17649;BME280;8943;51.110;-4.158;2023-02-03T10:53:52;103052.97;;;15.74;60.87
17649;BME280;8943;51.110;-4.158;2023-02-03T10:56:22;103068.84;;;15.79;60.48
17649;BME280;8943;51.110;-4.158;2023-02-03T10:58:54;103065.19;;;15.80;60.10
17649;BME280;8943;51.110;-4.158;2023-02-03T11:01:25;103059.75;;;15.81;59.48
17649;BME280;8943;51.110;-4.158;2023-02-03T11:03:58;103066.00;;;15.82;59.21
17649;BME280;8943;51.110;-4.158;2023-02-03T11:06:28;103052.97;;;15.74;58.94
17649;BME280;8943;51.110;-4.158;2023-02-03T11:08:57;103057.31;;;15.77;59.12
17649;BME280;8943;51.110;-4.158;2023-02-03T11:11:27;103057.41;;;15.75;58.64
17649;BME280;8943;51.110;-4.158;2023-02-03T11:14:14;103052.72;;;15.79;58.87
17649;BME280;8943;51.110;-4.158;2023-02-03T11:16:43;103060.41;;;15.85;58.98
17649;BME280;8943;51.110;-4.158;2023-02-03T11:19:15;103061.09;;;15.88;58.88
17649;BME280;8943;51.110;-4.158;2023-02-03T11:21:47;103067.84;;;15.95;58.51
17649;BME280;8943;51.110;-4.158;2023-02-03T11:24:19;103061.44;;;15.98;58.55
17649;BME280;8943;51.110;-4.158;2023-02-03T11:26:53;103066.81;;;15.98;58.32
17649;BME280;8943;51.110;-4.158;2023-02-03T11:29:26;103066.44;;;16.04;58.36
17649;BME280;8943;51.110;-4.158;2023-02-03T11:31:56;103070.69;;;16.08;57.76
17649;BME280;8943;51.110;-4.158;2023-02-03T11:34:28;103066.97;;;16.11;57.92
17649;BME280;8943;51.110;-4.158;2023-02-03T11:37:09;103051.09;;;16.06;57.79
17649;BME280;8943;51.110;-4.158;2023-02-03T11:39:54;103057.41;;;16.05;57.48
17649;BME280;8943;51.110;-4.158;2023-02-03T11:42:23;103052.81;;;16.07;57.40
17649;BME280;8943;51.110;-4.158;2023-02-03T11:45:12;103056.28;;;16.09;57.63
17649;BME280;8943;51.110;-4.158;2023-02-03T11:47:44;103058.63;;;16.15;57.58
17649;BME280;8943;51.110;-4.158;2023-02-03T11:50:20;103058.25;;;16.21;57.38
17649;BME280;8943;51.110;-4.158;2023-02-03T11:53:03;103063.63;;;16.21;56.87
17649;BME280;8943;51.110;-4.158;2023-02-03T11:55:50;103057.56;;;16.18;57.17
17649;BME280;8943;51.110;-4.158;2023-02-03T11:58:40;103071.19;;;16.15;57.08
17649;BME280;8943;51.110;-4.158;2023-02-03T12:01:18;103058.41;;;16.18;57.00
17649;BME280;8943;51.110;-4.158;2023-02-03T12:04:09;103056.31;;;16.23;56.90
17649;BME280;8943;51.110;-4.158;2023-02-03T12:07:03;103078.34;;;16.30;56.90
17649;BME280;8943;51.110;-4.158;2023-02-03T12:09:46;103049.81;;;16.42;56.88
17649;BME280;8943;51.110;-4.158;2023-02-03T12:12:34;103074.94;;;16.57;56.27
17649;BME280;8943;51.110;-4.158;2023-02-03T12:15:19;103055.69;;;16.63;56.05
17649;BME280;8943;51.110;-4.158;2023-02-03T12:18:05;103052.94;;;16.64;55.86
17649;BME280;8943;51.110;-4.158;2023-02-03T12:20:54;103056.09;;;16.71;55.72
17649;BME280;8943;51.110;-4.158;2023-02-03T12:23:39;103052.00;;;16.80;55.77
17649;BME280;8943;51.110;-4.158;2023-02-03T12:26:18;103056.44;;;16.81;55.00
17649;BME280;8943;51.110;-4.158;2023-02-03T12:28:54;103073.72;;;16.77;54.61
17649;BME280;8943;51.110;-4.158;2023-02-03T12:31:29;103055.06;;;16.73;54.98
17649;BME280;8943;51.110;-4.158;2023-02-03T12:34:09;103060.63;;;16.70;54.38
17649;BME280;8943;51.110;-4.158;2023-02-03T12:36:44;103051.19;;;16.63;54.49
17649;BME280;8943;51.110;-4.158;2023-02-03T12:39:19;103052.34;;;16.59;55.08
17649;BME280;8943;51.110;-4.158;2023-02-03T12:41:54;103052.84;;;16.66;55.02
17649;BME280;8943;51.110;-4.158;2023-02-03T12:44:28;103042.06;;;16.66;55.29
17649;BME280;8943;51.110;-4.158;2023-02-03T12:47:02;103063.06;;;16.75;55.13
17649;BME280;8943;51.110;-4.158;2023-02-03T12:49:39;103062.38;;;16.71;54.16
17649;BME280;8943;51.110;-4.158;2023-02-03T12:52:15;103046.75;;;16.62;54.50
17649;BME280;8943;51.110;-4.158;2023-02-03T12:54:50;103057.34;;;16.65;54.88
17649;BME280;8943;51.110;-4.158;2023-02-03T12:57:25;103051.75;;;16.68;54.78
17649;BME280;8943;51.110;-4.158;2023-02-03T13:00:02;103062.38;;;16.71;54.78
17649;BME280;8943;51.110;-4.158;2023-02-03T13:02:38;103051.31;;;16.76;55.08
17649;BME280;8943;51.110;-4.158;2023-02-03T13:05:18;103063.16;;;16.88;54.79
17649;BME280;8943;51.110;-4.158;2023-02-03T13:07:52;103064.41;;;16.96;54.71
17649;BME280;8943;51.110;-4.158;2023-02-03T13:10:28;103064.28;;;16.98;54.55
17649;BME280;8943;51.110;-4.158;2023-02-03T13:13:01;103055.34;;;16.97;54.43
17649;BME280;8943;51.110;-4.158;2023-02-03T13:15:36;103057.19;;;16.97;54.06
17649;BME280;8943;51.110;-4.158;2023-02-03T13:18:14;103057.69;;;16.89;53.59